Skip Navigation LinksHome page > Weather > Current weather Skip Navigation Links

Current Weather

Ronald Reagan Washington National, Washington

For information only: do not use for flight planning or navigation.
Latest weather
Observation time Saturday, July 30, 2016 9:52 AM EDT
Local time Saturday, July 30, 2016 10:52 AM EDT
Flight conditions Visual Meteorological Conditions
Winds
Wind direction South (180°)
Wind speed 8 mph
Visibility 10 mi.
Sky condition
Ceiling 14,000 ft. broken clouds
Cloud layer few clouds 3,800 ft.
Cloud layer scattered clouds 11,000 ft.
Cloud layer broken clouds 14,000 ft.
Cloud layer broken clouds 25,000 ft.
Temperature 82°F
Dewpoint 73°F
Altimeter 29.98 in.Hg
Derived measurements
Relative humidity 74%
Heat index 87°F
Density altitude 1794 ft.
Sea-level pressure 29.98 in.Hg
Remarks
Automated weather observing station with precipitation discriminator.
METAR KDCA 301352Z 18007KT 10SM FEW038 SCT110 BKN140 BKN250 28/23 A2998 RMK AO2 SLP152 T02780228

Settings

Location code

InnerDrive.Weather 4.0.5722.1 Release CLR 4.0.30319.34209
Copyright ©2015 Inner Drive Technology. All rights reserved. Portions Copyright ©1986-2015 David Braverman.

Find weather

Site navigation


Skip Navigation Links

Place info

Page info

PayPal - The safer, easier way to pay online!

Return home.

Copyright ©2016 Inner Drive Technology. Purveyors of fine, hand-crafted computer software. Page printed 2016-07-30T14:52:44 UTC.